createdAt,value
2019-05-13T00:09:07.907Z,1651.72
2019-05-13T00:19:18.174Z,1430.93
2019-05-13T00:24:24.136Z,1729.80
2019-05-13T00:39:38.581Z,1505.85
2019-05-13T00:44:44.277Z,1386.95
2019-05-13T00:59:57.183Z,662.23
2019-05-13T01:05:01.216Z,487.63
2019-05-13T01:10:07.451Z,275.75
2019-05-13T01:15:30.837Z,152.90
2019-05-13T01:20:35.666Z,107.40
2019-05-13T01:30:44.940Z,30.50
2019-05-13T01:35:48.993Z,26.30
2019-05-13T01:40:54.145Z,23.50
2019-05-13T01:45:58.242Z,19.85
2019-05-13T02:01:13.668Z,17.60
2019-05-13T02:26:38.380Z,14.20
2019-05-13T02:31:50.951Z,14.20
2019-05-13T02:36:52.505Z,13.85
2019-05-13T02:41:55.046Z,13.40
2019-05-13T02:57:07.308Z,11.70
2019-05-13T03:02:12.361Z,11.83
2019-05-13T03:12:22.992Z,10.53
2019-05-13T03:17:34.960Z,11.55
2019-05-13T03:32:55.116Z,11.75
2019-05-13T03:48:04.202Z,9.08
2019-05-13T03:58:13.082Z,8.58
2019-05-13T04:13:26.324Z,8.43
2019-05-13T04:18:31.993Z,8.43
2019-05-13T04:28:43.080Z,7.20
2019-05-13T04:33:44.975Z,7.12
2019-05-13T04:38:48.835Z,10.32
2019-05-13T04:48:58.109Z,6.78
2019-05-13T04:54:03.006Z,7.10
2019-05-13T04:59:06.948Z,6.87
2019-05-13T05:04:22.591Z,6.67
2019-05-13T05:19:26.175Z,7.40
2019-05-13T05:24:31.745Z,8.00
2019-05-13T05:29:35.434Z,7.65
2019-05-13T05:39:44.916Z,6.57
2019-05-13T05:44:48.650Z,5.95
2019-05-13T05:49:52.350Z,6.15
2019-05-13T05:54:56.056Z,7.60
2019-05-13T06:00:02.215Z,5.70
2019-05-13T06:05:05.221Z,5.80
2019-05-13T06:10:10.845Z,6.70
2019-05-13T06:15:14.214Z,5.40
2019-05-13T06:20:18.368Z,7.90
2019-05-13T06:25:23.338Z,6.40
2019-05-13T06:30:27.545Z,8.80
2019-05-13T06:35:32.299Z,7.90
2019-05-13T06:40:36.282Z,5.90
2019-05-13T06:45:42.083Z,6.90
2019-05-13T06:50:45.473Z,6.55
2019-05-13T06:55:49.215Z,6.80
2019-05-13T07:00:57.356Z,6.50
2019-05-13T07:05:58.362Z,5.10
2019-05-13T07:11:17.093Z,5.15
2019-05-13T07:16:22.580Z,6.50
2019-05-13T07:21:26.189Z,112.70
2019-05-13T07:26:31.462Z,518.25
2019-05-13T07:31:35.377Z,895.75
2019-05-13T07:36:39.094Z,1292.85
2019-05-13T07:41:43.348Z,1345.95
2019-05-13T07:46:47.147Z,1082.35
2019-05-13T07:51:52.100Z,869.25
2019-05-13T07:56:56.011Z,670.90
2019-05-13T08:02:02.062Z,494.20
2019-05-13T08:07:05.113Z,307.00
2019-05-13T08:12:11.032Z,153.60
2019-05-13T08:17:14.270Z,103.80
2019-05-13T08:22:17.978Z,66.80
2019-05-13T08:27:30.411Z,15.40
2019-05-13T08:32:27.360Z,11.20
2019-05-13T08:37:32.115Z,9.90
2019-05-13T08:42:36.333Z,10.70
2019-05-13T08:47:41.940Z,7.45
2019-05-13T08:52:45.468Z,6.90
2019-05-13T08:57:51.473Z,7.20
2019-05-13T09:02:54.492Z,7.15
2019-05-13T13:18:58.751Z,5.20
2019-05-13T13:24:05.362Z,7.40
2019-05-13T13:29:09.039Z,6.60
2019-05-13T13:34:17.943Z,4.40
2019-05-13T13:39:18.024Z,5.75
2019-05-13T13:44:24.623Z,4.20
2019-05-13T13:49:26.998Z,3.80
2019-05-13T13:54:33.658Z,4.70
2019-05-13T13:59:36.319Z,6.50
2019-05-13T14:04:42.955Z,111.60
2019-05-13T14:09:45.671Z,218.15
2019-05-13T14:14:51.925Z,408.70
2019-05-13T14:19:54.750Z,452.85
2019-05-13T14:24:58.360Z,440.60
2019-05-13T14:30:02.081Z,448.65
2019-05-13T14:35:08.650Z,413.50
2019-05-13T14:40:12.156Z,472.20
2019-05-13T14:45:16.016Z,437.20
2019-05-13T14:50:21.376Z,555.00
2019-05-13T14:55:25.372Z,673.05
2019-05-13T15:00:29.010Z,581.40
2019-05-13T15:05:32.591Z,605.55
2019-05-13T15:10:36.374Z,518.50
2019-05-13T15:15:42.188Z,489.25
2019-05-13T15:30:55.870Z,145.15
2019-05-13T15:36:01.863Z,108.15
2019-05-13T15:41:04.985Z,572.30
2019-05-13T15:46:08.695Z,543.50
2019-05-13T15:51:12.321Z,634.40
2019-05-13T15:56:16.811Z,470.70
2019-05-13T16:01:22.989Z,527.85
2019-05-13T16:06:25.821Z,464.00
2019-05-13T16:11:29.552Z,506.85
2019-05-13T16:16:33.771Z,485.90
2019-05-13T16:21:37.380Z,384.30
2019-05-13T16:26:42.713Z,316.90
2019-05-13T16:31:46.468Z,292.40
2019-05-13T16:36:52.815Z,426.55
2019-05-13T16:41:55.539Z,452.60
2019-05-13T16:47:01.397Z,557.40
2019-05-13T16:52:05.957Z,501.40
2019-05-13T16:57:09.662Z,572.80
2019-05-13T17:02:13.289Z,697.85
2019-05-13T17:07:16.830Z,721.90
2019-05-13T17:12:21.263Z,881.70
2019-05-13T17:17:25.257Z,786.95
2019-05-13T17:22:31.455Z,960.90
2019-05-13T17:27:34.442Z,711.30
2019-05-13T17:32:38.146Z,758.30
2019-05-13T17:37:42.285Z,708.80
2019-05-13T17:42:46.002Z,762.70
2019-05-13T17:47:51.868Z,880.30
2019-05-13T17:52:55.524Z,802.30
2019-05-13T17:58:01.439Z,725.20
2019-05-13T18:03:04.668Z,797.70
2019-05-13T18:08:11.253Z,745.00
2019-05-13T18:13:15.242Z,672.90
2019-05-13T18:18:21.410Z,568.65
2019-05-13T18:23:24.439Z,785.50
2019-05-13T18:28:31.294Z,601.85
2019-05-13T18:33:33.522Z,471.60
2019-05-13T18:38:37.241Z,478.70
2019-05-13T18:43:41.336Z,456.80
2019-05-13T18:48:58.182Z,575.10
2019-05-13T18:53:51.959Z,496.70
2019-05-13T18:58:55.786Z,395.50
2019-05-13T19:03:59.404Z,499.80
2019-05-13T19:09:05.727Z,689.00
2019-05-13T19:14:12.082Z,593.90
2019-05-13T19:19:35.338Z,488.90
2019-05-13T19:24:41.558Z,720.90
2019-05-13T19:29:46.912Z,899.80
2019-05-13T19:39:55.748Z,945.88
2019-05-13T19:45:01.903Z,1016.60
2019-05-13T19:50:06.018Z,910.70
2019-05-13T19:55:12.052Z,882.32
2019-05-13T20:10:26.455Z,1114.90
2019-05-13T20:15:31.481Z,931.40
2019-05-13T20:20:35.793Z,871.73
2019-05-13T20:35:50.708Z,688.58
2019-05-13T20:40:55.351Z,987.10
2019-05-13T20:46:01.704Z,1000.20
2019-05-13T20:51:11.382Z,999.50
2019-05-13T20:56:16.612Z,962.77
2019-05-13T21:16:37.224Z,869.70
2019-05-13T21:36:54.236Z,506.67
2019-05-13T21:47:02.219Z,282.70
2019-05-13T21:52:06.838Z,166.85
2019-05-13T22:02:16.410Z,48.70
2019-05-13T22:12:27.544Z,16.83
2019-05-13T22:17:31.716Z,11.35
2019-05-13T22:27:41.310Z,969.07
2019-05-13T22:32:45.795Z,1240.83
2019-05-13T22:37:51.169Z,1203.90
2019-05-13T22:42:57.186Z,1018.43
2019-05-13T22:53:07.002Z,710.03
2019-05-13T23:03:16.345Z,317.60
2019-05-13T23:08:21.735Z,247.75
2019-05-13T23:13:26.748Z,64.58
2019-05-13T23:23:37.543Z,16.63
2019-05-13T23:28:41.744Z,9.90
2019-05-13T23:54:05.125Z,7.83
2019-05-13T23:59:11.202Z,9.60
